Glennville, GA (30427)

4:38 PM EST on December 08, 2016 (GMT -0500)
Glennville, GA Hwy 301 S. | | Change Station
Active Advisory: Flood Warning

Elev 148 ft 31.89 °N, 81.94 °W | Updated 8 seconds ago

Clear
Clear
62.2 °F
Feels Like 62.2 °F
N
0.0
Wind Variable Wind from WSW
Gusts 0.0 mph

Today
High -- | Low -- °F
--% Chance of Precip.
Yesterday
High -- | Low -- °F
Precip. -- in
Pressure 30.16 in
Visibility 10.0 miles
Clouds Clear
Dew Point 43 °F
Humidity 50%
Rainfall 0.00 in
Snow Depth Not available.
7:16 AM 5:23 PM
Waxing Gibbous, 67% visible
METAR KCWV 082115Z AUTO 29007G15KT 10SM CLR 16/05 A3016 RMK AO2 T01640050
Pressure 30.16 in
Visibility 10.0 miles
Clouds Clear
Dew Point 43 °F
Humidity 50%
Rainfall 0.00 in
Snow Depth Not available.
7:16 AM 5:23 PM
Waxing Gibbous, 67% visible
METAR KCWV 082115Z AUTO 29007G15KT 10SM CLR 16/05 A3016 RMK AO2 T01640050

10-Day Weather Forecast

Almanac

Astronomy

Dec. 08, 2016 Rise Set
Actual Time
Civil Twilight
Nautical Twilight
Astronomical Twilight
Moon
Length of Visible Light
Length of Day
Tomorrow will be .
, % of the Moon is Illuminated

Today's Extremes

State Highs State Lows

Community

WunderPhotos

Upload Photos

1,956,277 photos uploaded!

WunderBlog® & News

Nearby

Air Quality

  Air Quality AQ Index Pollutant
Not available.

Snow Depth

Station Depth Elevation

Earthquake Activity

City Distance Mag. Time & Date
Minimum magnitude displayed is 2.5.

Coastal Water Temperatures

Place Temperature

Stations

Nearby Weather Stations

Station Location Temp. Windchill Dew Point Humidity Wind Precip. Elev Updated Type
                   

Watches & Warnings

Flood Warning
Issued: 10:14 AM EST Dec. 8, 2016 – National Weather Service

The Flood Warning continues for
the Ohoopee river near Reidsville.
* At 9 am Thursday the stage was 10.8 feet and slowly rising.
* Flood stage is 11.0 feet.
* At 11.0 feet, water enters the back yards of some homes in the Joy
Bluff community.


Lat... Lon 3216 8225 3217 8217 3205 8212 3190 8207
          3192 8217 3204 8221